Navarino, Wisconsin
Current Conditions -  °F | °C
As of 1:15 AM on Friday 31 Oct 2014 (Local Time) from KEZS Reporting Station
Overcast Overcast  
Wind Chill: 32°   Ceiling: 9000
Heat Index: 39°   Visibility: 10mi
Dew Point: 31°   Wind: 10mph
Humidity: 74%   Direction: 310°NW
Pressure: 30.05"   Gusts: 17mph
Location:  44.7353°N, 88.4379°W
Report Text: KEZS 310615Z AUTO 31009G15KT 10SM SCT041 SCT070 OVC090 04/00 A3005 RMK AO2 T00401003
Loading
Personal Weather Stations






























Interactive Weather Map New forecast layout! Learn more

10-Day Weather Forecast

Advertisements
Track Severe Weather on mobile